createdAt,value
2023-04-06T00:00:50.329Z,-75
2023-04-06T00:03:18.426Z,-75
2023-04-06T00:05:49.426Z,-76
2023-04-06T00:08:17.481Z,-75
2023-04-06T00:10:45.635Z,-76
2023-04-06T00:13:20.572Z,-76
2023-04-06T00:15:48.632Z,-75
2023-04-06T00:18:17.119Z,-76
2023-04-06T00:20:45.196Z,-76
2023-04-06T00:23:27.844Z,-76
2023-04-06T00:25:56.574Z,-75
2023-04-06T00:28:26.822Z,-75
2023-04-06T00:30:56.359Z,-76
2023-04-06T00:33:26.343Z,-75
2023-04-06T00:35:54.463Z,-75
2023-04-06T00:38:22.854Z,-75
2023-04-06T00:40:57.844Z,-75
2023-04-06T00:43:26.502Z,-76
2023-04-06T00:45:55.068Z,-76
2023-04-06T00:48:23.134Z,-76
2023-04-06T00:50:51.287Z,-75
2023-04-06T00:53:19.368Z,-75
2023-04-06T00:55:47.405Z,-75
2023-04-06T00:58:17.114Z,-75
2023-04-06T01:00:45.197Z,-75
2023-04-06T01:03:13.237Z,-75
2023-04-06T01:05:50.434Z,-76
2023-04-06T01:08:18.496Z,-76
2023-04-06T01:10:46.543Z,-75
2023-04-06T01:13:15.951Z,-76
2023-04-06T01:15:50.440Z,-75
2023-04-06T01:18:18.883Z,-75
2023-04-06T01:20:47.036Z,-75
2023-04-06T01:23:16.452Z,-75
2023-04-06T01:25:44.540Z,-75
2023-04-06T01:28:12.598Z,-75
2023-04-06T01:30:44.391Z,-75
2023-04-06T01:33:12.459Z,-75
2023-04-06T01:35:40.628Z,-75
2023-04-06T01:38:14.440Z,-75
2023-04-06T01:40:45.772Z,-75
2023-04-06T01:43:14.051Z,-76
2023-04-06T01:45:42.131Z,-76
2023-04-06T01:48:10.572Z,-76
2023-04-06T01:50:41.643Z,-75
2023-04-06T01:53:09.702Z,-75
2023-04-06T01:55:37.761Z,-75
2023-04-06T01:58:07.256Z,-75
2023-04-06T02:00:38.475Z,-75
2023-04-06T02:03:06.708Z,-75
2023-04-06T02:05:38.791Z,-75
2023-04-06T02:08:08.488Z,-75
2023-04-06T02:10:36.648Z,-75
2023-04-06T02:13:06.083Z,-75
2023-04-06T02:16:03.615Z,-75
2023-04-06T02:18:32.423Z,-75
2023-04-06T02:21:00.533Z,-76
2023-04-06T02:23:28.761Z,-76
2023-04-06T02:25:56.814Z,-76
2023-04-06T02:28:26.395Z,-76
2023-04-06T02:30:56.460Z,-75
2023-04-06T02:33:24.607Z,-75
2023-04-06T02:35:52.670Z,-75
2023-04-06T02:38:26.462Z,-75
2023-04-06T02:40:54.528Z,-75
2023-04-06T02:43:34.687Z,-75
2023-04-06T02:46:02.905Z,-76
2023-04-06T02:48:31.063Z,-75
2023-04-06T02:50:59.119Z,-76
2023-04-06T02:53:28.681Z,-75
2023-04-06T02:55:56.980Z,-75
2023-04-06T02:58:25.080Z,-75
2023-04-06T03:00:54.515Z,-75
2023-04-06T03:03:22.632Z,-75
2023-04-06T03:05:50.816Z,-75
2023-04-06T03:08:20.482Z,-75
2023-04-06T03:10:48.540Z,-75
2023-04-06T03:13:16.595Z,-75
2023-04-06T03:15:44.674Z,-75
2023-04-06T03:18:14.158Z,-75
2023-04-06T03:20:42.413Z,-75
2023-04-06T03:23:10.464Z,-75
2023-04-06T03:25:40.142Z,-75
2023-04-06T03:28:08.168Z,-75
2023-04-06T03:30:38.815Z,-75
2023-04-06T03:33:06.911Z,-75
2023-04-06T03:35:40.115Z,-77
2023-04-06T03:38:08.183Z,-77
2023-04-06T03:40:36.464Z,-77
2023-04-06T03:43:04.567Z,-77
2023-04-06T03:45:32.614Z,-77
2023-04-06T03:48:00.702Z,-77
2023-04-06T03:50:28.826Z,-77
2023-04-06T03:52:58.422Z,-77
2023-04-06T03:55:26.480Z,-77
2023-04-06T03:57:54.736Z,-76
2023-04-06T04:00:22.893Z,-77
2023-04-06T04:02:56.678Z,-77
2023-04-06T04:05:26.448Z,-77
2023-04-06T04:07:54.600Z,-77
2023-04-06T04:10:24.014Z,-77
2023-04-06T04:12:52.151Z,-77
2023-04-06T04:15:20.584Z,-77
2023-04-06T04:17:50.466Z,-77
2023-04-06T04:20:20.586Z,-77
2023-04-06T04:22:48.618Z,-77
2023-04-06T04:25:16.802Z,-77
2023-04-06T04:27:46.220Z,-78
2023-04-06T04:30:14.506Z,-77
2023-04-06T04:32:42.611Z,-77
2023-04-06T04:35:12.378Z,-77
2023-04-06T04:37:44.546Z,-77
2023-04-06T04:40:13.493Z,-77
2023-04-06T04:42:41.753Z,-77
2023-04-06T04:45:12.530Z,-77
2023-04-06T04:47:40.695Z,-77
2023-04-06T04:50:09.537Z,-77
2023-04-06T04:52:39.869Z,-77
2023-04-06T04:55:08.465Z,-77
2023-04-06T04:57:36.525Z,-77
2023-04-06T05:00:11.122Z,-77
2023-04-06T05:02:50.710Z,-77
2023-04-06T05:05:18.824Z,-77
2023-04-06T05:07:46.877Z,-77
2023-04-06T05:10:15.242Z,-77
2023-04-06T05:12:43.400Z,-77
2023-04-06T05:15:13.087Z,-77
2023-04-06T05:17:44.670Z,-77
2023-04-06T05:20:14.773Z,-77
2023-04-06T05:22:42.833Z,-77
2023-04-06T05:25:15.250Z,-77
2023-04-06T05:27:50.611Z,-77
2023-04-06T05:30:20.136Z,-77
2023-04-06T05:32:48.390Z,-77
2023-04-06T05:35:20.710Z,-76
2023-04-06T05:37:48.904Z,-77
2023-04-06T05:40:20.610Z,-77
2023-04-06T05:42:50.447Z,-77
2023-04-06T05:45:20.012Z,-77
2023-04-06T05:47:48.119Z,-77
2023-04-06T05:50:20.851Z,-77
2023-04-06T05:52:48.921Z,-77
2023-04-06T05:55:16.936Z,-77
2023-04-06T05:57:50.593Z,-77
2023-04-06T06:00:22.454Z,-77
2023-04-06T06:02:50.556Z,-76
2023-04-06T06:05:18.820Z,-76
2023-04-06T06:07:46.917Z,-77
2023-04-06T06:10:20.610Z,-77
2023-04-06T06:12:48.681Z,-77
2023-04-06T06:15:16.743Z,-76
2023-04-06T06:17:46.241Z,-77
2023-04-06T06:20:14.842Z,-77
2023-04-06T06:22:42.922Z,-77
2023-04-06T06:25:11.173Z,-77
2023-04-06T06:27:39.291Z,-77
2023-04-06T06:30:08.597Z,-77
2023-04-06T06:32:36.692Z,-77
2023-04-06T06:35:06.796Z,-77
2023-04-06T06:37:34.916Z,-77
2023-04-06T06:40:02.972Z,-77
2023-04-06T06:42:31.105Z,-77
2023-04-06T06:44:59.258Z,-77
2023-04-06T06:47:27.691Z,-77
2023-04-06T06:49:55.748Z,-77
2023-04-06T06:52:25.278Z,-78
2023-04-06T06:54:54.909Z,-77
2023-04-06T06:57:23.931Z,-77
2023-04-06T06:59:56.673Z,-77
2023-04-06T07:02:26.874Z,-77
2023-04-06T07:04:55.048Z,-77
2023-04-06T07:07:24.552Z,-77
2023-04-06T07:09:56.671Z,-77
2023-04-06T07:12:24.940Z,-77
2023-04-06T07:14:53.027Z,-77
2023-04-06T07:17:26.751Z,-77
2023-04-06T07:19:56.724Z,-77
2023-04-06T07:22:26.251Z,-76
2023-04-06T07:24:54.342Z,-77
2023-04-06T07:27:22.463Z,-77
2023-04-06T07:29:50.513Z,-77
2023-04-06T07:32:20.759Z,-77
2023-04-06T07:34:56.692Z,-77
2023-04-06T07:37:26.155Z,-77
2023-04-06T07:39:54.204Z,-76
2023-04-06T07:42:26.730Z,-77
2023-04-06T07:44:54.864Z,-77
2023-04-06T07:47:22.948Z,-77
2023-04-06T07:49:51.046Z,-77
2023-04-06T07:52:19.175Z,-77
2023-04-06T07:54:50.402Z,-77
2023-04-06T07:57:18.694Z,-77
2023-04-06T07:59:46.960Z,-77
2023-04-06T08:02:15.074Z,-77
2023-04-06T08:04:45.180Z,-77
2023-04-06T08:07:13.987Z,-76
2023-04-06T08:09:42.043Z,-76
2023-04-06T08:12:11.475Z,-77
2023-04-06T08:14:39.511Z,-76
2023-04-06T08:17:07.545Z,-76
2023-04-06T08:19:35.661Z,-77
2023-04-06T08:22:03.745Z,-77
2023-04-06T08:24:33.423Z,-77
2023-04-06T08:27:01.571Z,-77
2023-04-06T08:29:31.042Z,-77
2023-04-06T08:31:59.122Z,-77
2023-04-06T08:34:33.489Z,-77
2023-04-06T08:37:01.639Z,-77
2023-04-06T08:39:31.788Z,-77
2023-04-06T08:42:01.088Z,-77
2023-04-06T08:44:30.703Z,-77
2023-04-06T08:46:58.793Z,-76
2023-04-06T08:49:32.788Z,-77
2023-04-06T08:52:01.547Z,-77
2023-04-06T08:54:29.643Z,-77
2023-04-06T08:56:58.023Z,-77
2023-04-06T08:59:26.129Z,-76
2023-04-06T09:01:55.683Z,-77
2023-04-06T09:04:27.153Z,-76
2023-04-06T09:06:55.390Z,-77
2023-04-06T09:09:26.071Z,-77
2023-04-06T09:11:54.261Z,-77
2023-04-06T09:14:36.470Z,-77
2023-04-06T09:17:10.319Z,-76
2023-04-06T09:19:47.696Z,-77
2023-04-06T09:22:21.085Z,-77
2023-04-06T09:24:51.435Z,-77
2023-04-06T09:27:19.498Z,-77
2023-04-06T09:29:47.574Z,-77
2023-04-06T09:32:17.975Z,-77
2023-04-06T09:34:50.834Z,-76
2023-04-06T09:37:20.178Z,-77
2023-04-06T09:39:53.232Z,-77
2023-04-06T09:42:27.588Z,-77
2023-04-06T09:44:55.774Z,-77
2023-04-06T09:47:27.792Z,-76
2023-04-06T09:49:58.490Z,-77
2023-04-06T09:52:27.829Z,-77
2023-04-06T09:54:56.245Z,-77
2023-04-06T09:57:27.917Z,-77
2023-04-06T09:59:59.331Z,-77
2023-04-06T10:02:36.456Z,-77
2023-04-06T10:05:07.674Z,-76
2023-04-06T10:07:43.188Z,-77
2023-04-06T10:10:17.864Z,-77
2023-04-06T10:12:50.932Z,-76
2023-04-06T10:15:21.006Z,-77
2023-04-06T10:17:52.215Z,-77
2023-04-06T10:20:23.495Z,-77
2023-04-06T10:22:58.643Z,-77
2023-04-06T10:25:30.534Z,-77
2023-04-06T10:28:02.442Z,-77
2023-04-06T10:30:30.820Z,-77
2023-04-06T10:33:00.312Z,-77
2023-04-06T10:35:38.575Z,-77
2023-04-06T10:38:09.094Z,-77
2023-04-06T10:40:38.308Z,-77
2023-04-06T10:43:10.255Z,-77
2023-04-06T10:45:38.890Z,-77
2023-04-06T10:48:17.637Z,-77
2023-04-06T10:50:46.763Z,-76
2023-04-06T10:53:22.220Z,-77
2023-04-06T10:55:50.667Z,-77
2023-04-06T10:58:18.698Z,-77
2023-04-06T11:00:50.744Z,-77
2023-04-06T11:03:20.746Z,-77
2023-04-06T11:05:48.991Z,-77
2023-04-06T11:08:31.815Z,-77
2023-04-06T11:11:07.467Z,-77
2023-04-06T11:13:42.842Z,-77
2023-04-06T11:16:15.459Z,-77
2023-04-06T11:18:52.025Z,-77
2023-04-06T11:21:20.272Z,-77
2023-04-06T11:23:48.325Z,-77
2023-04-06T11:26:16.595Z,-77
2023-04-06T11:28:44.724Z,-77
2023-04-06T11:31:13.179Z,-77
2023-04-06T11:33:41.311Z,-77
2023-04-06T11:36:16.698Z,-77
2023-04-06T11:38:44.889Z,-77
2023-04-06T11:41:12.964Z,-77
2023-04-06T11:43:41.385Z,-77
2023-04-06T11:46:19.018Z,-77
2023-04-06T11:48:47.439Z,-77
2023-04-06T11:51:23.584Z,-78
2023-04-06T11:53:51.626Z,-77
2023-04-06T11:56:30.579Z,-77
2023-04-06T11:58:59.618Z,-77
2023-04-06T12:01:28.005Z,-77
2023-04-06T12:03:56.308Z,-77
2023-04-06T12:06:27.064Z,-77
2023-04-06T12:08:55.094Z,-77
2023-04-06T12:11:27.409Z,-77
2023-04-06T12:13:55.558Z,-77
2023-04-06T12:16:23.724Z,-77
2023-04-06T12:18:51.846Z,-77
2023-04-06T12:21:19.914Z,-77
2023-04-06T12:23:49.354Z,-77
2023-04-06T12:26:17.399Z,-76
2023-04-06T12:28:45.748Z,-77
2023-04-06T12:31:17.552Z,-77
2023-04-06T12:33:46.298Z,-77
2023-04-06T12:36:14.830Z,-77
2023-04-06T12:38:43.019Z,-76
2023-04-06T12:41:12.459Z,-77
2023-04-06T12:43:41.224Z,-77
2023-04-06T12:46:09.277Z,-77
2023-04-06T12:48:38.998Z,-77
2023-04-06T12:51:07.861Z,-77
2023-04-06T12:53:39.020Z,-77
2023-04-06T12:56:14.647Z,-77
2023-04-06T12:58:43.112Z,-77
2023-04-06T13:01:15.096Z,-77
2023-04-06T13:03:43.196Z,-77
2023-04-06T13:06:11.680Z,-77
2023-04-06T13:08:41.132Z,-77
2023-04-06T13:11:10.312Z,-77
2023-04-06T13:13:39.913Z,-77
2023-04-06T13:16:09.666Z,-77
2023-04-06T13:18:39.704Z,-77
2023-04-06T13:21:08.410Z,-77
2023-04-06T13:23:36.692Z,-77
2023-04-06T13:26:05.977Z,-77
2023-04-06T13:28:34.445Z,-77
2023-04-06T13:31:04.117Z,-77
2023-04-06T13:33:32.256Z,-77
2023-04-06T13:36:00.536Z,-77
2023-04-06T13:38:28.674Z,-77
2023-04-06T13:40:57.063Z,-77
2023-04-06T13:43:27.979Z,-77
2023-04-06T13:45:57.099Z,-77
2023-04-06T13:48:27.061Z,-77
2023-04-06T13:50:55.252Z,-77
2023-04-06T13:53:23.421Z,-77
2023-04-06T13:55:55.630Z,-77
2023-04-06T13:58:23.808Z,-77
2023-04-06T14:00:52.126Z,-77
2023-04-06T14:03:20.624Z,-77
2023-04-06T14:05:50.076Z,-76
2023-04-06T14:08:18.136Z,-77
2023-04-06T14:10:46.187Z,-77
2023-04-06T14:13:15.012Z,-77
2023-04-06T14:15:43.209Z,-77
2023-04-06T14:18:11.529Z,-77
2023-04-06T14:20:39.567Z,-77
2023-04-06T14:23:09.039Z,-77
2023-04-06T14:25:39.003Z,-77
2023-04-06T14:28:07.185Z,-76
2023-04-06T14:30:35.357Z,-77
2023-04-06T14:33:03.543Z,-77
2023-04-06T14:35:33.601Z,-77
2023-04-06T14:38:02.598Z,-77
2023-04-06T14:40:32.050Z,-77
2023-04-06T14:43:00.149Z,-77
2023-04-06T14:45:28.187Z,-77
2023-04-06T14:47:56.291Z,-77
2023-04-06T14:50:24.345Z,-77
2023-04-06T14:52:52.794Z,-77
2023-04-06T14:55:20.873Z,-77
2023-04-06T14:57:50.328Z,-77
2023-04-06T15:00:19.167Z,-77
2023-04-06T15:02:47.368Z,-77
2023-04-06T15:05:15.558Z,-76
2023-04-06T15:07:43.599Z,-77
2023-04-06T15:10:12.661Z,-77
2023-04-06T15:12:40.818Z,-77
2023-04-06T15:15:11.630Z,-77
2023-04-06T15:17:39.799Z,-77
2023-04-06T15:20:08.737Z,-77
2023-04-06T15:22:37.249Z,-77
2023-04-06T15:25:06.536Z,-77
2023-04-06T15:27:34.646Z,-77
2023-04-06T15:30:03.156Z,-77
2023-04-06T15:32:34.535Z,-77
2023-04-06T15:35:02.593Z,-77
2023-04-06T15:37:30.657Z,-77
2023-04-06T15:40:00.235Z,-77
2023-04-06T15:42:29.340Z,-77
2023-04-06T15:44:57.366Z,-77
2023-04-06T15:47:25.581Z,-77
2023-04-06T15:49:55.040Z,-77
2023-04-06T15:52:23.758Z,-77
2023-04-06T15:54:51.856Z,-77
2023-04-06T15:57:27.146Z,-77
2023-04-06T15:59:56.195Z,-77
2023-04-06T16:02:24.821Z,-77
2023-04-06T16:04:57.421Z,-77
2023-04-06T16:07:25.498Z,-77
2023-04-06T16:09:53.545Z,-78
2023-04-06T16:12:21.575Z,-77
2023-04-06T16:14:49.739Z,-77
2023-04-06T16:17:17.802Z,-77
2023-04-06T16:19:51.185Z,-77
2023-04-06T16:22:20.898Z,-77
2023-04-06T16:24:49.030Z,-77
2023-04-06T16:27:17.684Z,-77
2023-04-06T16:29:45.809Z,-77
2023-04-06T16:32:15.536Z,-77
2023-04-06T16:34:43.634Z,-77
2023-04-06T16:37:11.807Z,-77
2023-04-06T16:39:46.776Z,-77
2023-04-06T16:42:16.163Z,-77
2023-04-06T16:44:45.192Z,-76
2023-04-06T16:47:13.266Z,-77
2023-04-06T16:49:41.382Z,-77
2023-04-06T16:52:15.205Z,-77
2023-04-06T16:54:43.283Z,-77
2023-04-06T16:57:14.162Z,-77
2023-04-06T16:59:45.197Z,-77
2023-04-06T17:02:13.300Z,-77
2023-04-06T17:04:41.425Z,-77
2023-04-06T17:07:10.818Z,-77
2023-04-06T17:09:38.896Z,-77
2023-04-06T17:12:07.682Z,-77
2023-04-06T17:14:41.036Z,-77
2023-04-06T17:17:09.193Z,-77
2023-04-06T17:19:37.505Z,-77
2023-04-06T17:22:05.533Z,-77
2023-04-06T17:24:33.574Z,-77
2023-04-06T17:27:02.833Z,-77
2023-04-06T17:29:36.214Z,-77
2023-04-06T17:32:05.992Z,-77
2023-04-06T17:34:34.040Z,-77
2023-04-06T17:37:02.132Z,-77
2023-04-06T17:39:30.182Z,-77
2023-04-06T17:41:58.242Z,-77
2023-04-06T17:44:27.531Z,-77
2023-04-06T17:46:55.600Z,-77
2023-04-06T17:49:25.026Z,-77
2023-04-06T17:51:57.225Z,-77
2023-04-06T17:54:25.492Z,-77
2023-04-06T17:56:53.597Z,-77
2023-04-06T17:59:21.664Z,-77
2023-04-06T18:01:49.825Z,-76
2023-04-06T18:04:18.249Z,-77
2023-04-06T18:06:47.678Z,-77
2023-04-06T18:09:21.268Z,-74
2023-04-06T18:11:51.370Z,-76
2023-04-06T18:14:19.437Z,-76
2023-04-06T18:16:47.810Z,-78
2023-04-06T18:19:16.210Z,-76
2023-04-06T18:21:44.239Z,-76
2023-04-06T18:24:27.348Z,-77
2023-04-06T18:27:01.717Z,-78
2023-04-06T18:29:34.155Z,-75
2023-04-06T18:32:02.222Z,-76
2023-04-06T18:34:30.271Z,-76
2023-04-06T18:36:59.997Z,-77
2023-04-06T18:39:29.502Z,-75
2023-04-06T18:41:58.637Z,-80
2023-04-06T18:44:26.770Z,-79
2023-04-06T18:46:55.643Z,-79
2023-04-06T18:49:23.898Z,-78
2023-04-06T18:51:53.743Z,-77
2023-04-06T18:54:21.854Z,-80
2023-04-06T18:56:51.324Z,-80
2023-04-06T18:59:19.505Z,-79
2023-04-06T19:01:54.323Z,-78
2023-04-06T19:04:29.358Z,-78
2023-04-06T19:06:57.666Z,-80
2023-04-06T19:09:28.372Z,-83
2023-04-06T19:11:58.441Z,-79
2023-04-06T19:14:26.512Z,-79
2023-04-06T19:16:54.793Z,-78
2023-04-06T19:19:27.279Z,-78
2023-04-06T19:21:56.368Z,-80
2023-04-06T19:24:26.094Z,-79
2023-04-06T19:26:54.207Z,-79
2023-04-06T19:29:23.753Z,-76
2023-04-06T19:31:52.082Z,-77
2023-04-06T19:34:20.235Z,-81
2023-04-06T19:36:48.462Z,-80
2023-04-06T19:39:18.058Z,-80
2023-04-06T19:41:46.201Z,-78
2023-04-06T19:44:14.330Z,-76
2023-04-06T19:46:47.214Z,-77
2023-04-06T19:49:15.508Z,-80
2023-04-06T19:51:43.633Z,-80
2023-04-06T19:54:11.715Z,-82
2023-04-06T19:56:45.297Z,-82
2023-04-06T19:59:13.375Z,-77
2023-04-06T20:01:41.517Z,-79
2023-04-06T20:04:11.179Z,-81
2023-04-06T20:06:45.503Z,-78
2023-04-06T20:09:15.694Z,-83
2023-04-06T20:12:08.897Z,-81
2023-04-06T20:14:51.888Z,-79
2023-04-06T20:17:22.044Z,-81
2023-04-06T20:19:53.961Z,-80
2023-04-06T20:22:27.391Z,-81
2023-04-06T20:24:55.517Z,-82
2023-04-06T20:27:23.598Z,-79
2023-04-06T20:29:51.688Z,-80
2023-04-06T20:32:21.126Z,-82
2023-04-06T20:34:49.435Z,-81
2023-04-06T20:37:19.602Z,-80
2023-04-06T20:39:48.370Z,-81
2023-04-06T20:42:16.519Z,-80
2023-04-06T20:44:46.714Z,-79
2023-04-06T20:47:15.392Z,-79
2023-04-06T20:49:43.506Z,-79
2023-04-06T20:52:11.595Z,-79
2023-04-06T20:54:41.055Z,-79
2023-04-06T20:57:15.517Z,-79
2023-04-06T20:59:46.174Z,-79
2023-04-06T21:02:15.563Z,-80
2023-04-06T21:04:44.065Z,-79
2023-04-06T21:07:15.729Z,-79
2023-04-06T21:09:45.143Z,-79
2023-04-06T21:12:13.186Z,-79
2023-04-06T21:14:41.379Z,-79
2023-04-06T21:17:09.404Z,-80
2023-04-06T21:19:37.491Z,-79
2023-04-06T21:22:09.438Z,-79
2023-04-06T21:24:37.528Z,-79
2023-04-06T21:27:12.988Z,-79
2023-04-06T21:30:02.907Z,-79
2023-04-06T21:32:33.432Z,-79
2023-04-06T21:35:03.532Z,-79
2023-04-06T21:37:39.418Z,-79
2023-04-06T21:40:21.400Z,-79
2023-04-06T21:42:50.853Z,-79
2023-04-06T21:45:18.871Z,-79
2023-04-06T21:47:46.996Z,-79
2023-04-06T21:50:15.053Z,-79
2023-04-06T21:52:45.412Z,-79
2023-04-06T21:55:13.554Z,-79
2023-04-06T21:57:45.667Z,-79
2023-04-06T22:00:16.582Z,-79
2023-04-06T22:02:45.931Z,-79
2023-04-06T22:05:15.703Z,-79
2023-04-06T22:07:52.248Z,-79
2023-04-06T22:10:20.495Z,-79
2023-04-06T22:13:03.389Z,-80
2023-04-06T22:15:40.903Z,-79
2023-04-06T22:18:39.368Z,-79
2023-04-06T22:21:21.314Z,-79
2023-04-06T22:23:49.366Z,-79
2023-04-06T22:26:21.421Z,-79
2023-04-06T22:28:49.657Z,-79
2023-04-06T22:31:19.071Z,-79
2023-04-06T22:33:51.450Z,-79
2023-04-06T22:36:21.670Z,-79
2023-04-06T22:38:50.983Z,-79
2023-04-06T22:41:21.429Z,-79
2023-04-06T22:44:03.484Z,-79
2023-04-06T22:46:32.907Z,-79
2023-04-06T22:49:04.196Z,-79
2023-04-06T22:51:32.819Z,-79
2023-04-06T22:54:00.928Z,-79
2023-04-06T22:56:28.961Z,-79
2023-04-06T22:58:57.080Z,-79
2023-04-06T23:01:35.101Z,-79
2023-04-06T23:04:16.198Z,-79
2023-04-06T23:06:45.611Z,-79
2023-04-06T23:09:13.649Z,-79
2023-04-06T23:11:45.482Z,-79
2023-04-06T23:14:13.529Z,-79
2023-04-06T23:17:27.470Z,-79
2023-04-06T23:19:56.940Z,-79
2023-04-06T23:22:27.469Z,-79
2023-04-06T23:25:15.048Z,-79
2023-04-06T23:27:43.196Z,-79
2023-04-06T23:30:21.526Z,-79
2023-04-06T23:32:49.614Z,-79
2023-04-06T23:35:29.187Z,-79
2023-04-06T23:38:09.518Z,-79
2023-04-06T23:40:45.494Z,-79
2023-04-06T23:43:13.529Z,-79
2023-04-06T23:45:42.639Z,-79
2023-04-06T23:48:27.589Z,-79
2023-04-06T23:50:57.011Z,-79
2023-04-06T23:53:25.038Z,-79
2023-04-06T23:56:03.484Z,-79
2023-04-06T23:58:39.545Z,-79
